sensor_id;sensor_type;location;lat;lon;timestamp;temperature;humidity
14527;DHT22;7350;51.208;4.238;2022-07-11T00:00:00;18.30;99.90
14527;DHT22;7350;51.208;4.238;2022-07-11T00:02:27;18.80;99.90
14527;DHT22;7350;51.208;4.238;2022-07-11T00:04:54;19.10;99.90
14527;DHT22;7350;51.208;4.238;2022-07-11T00:07:22;19.00;99.90
14527;DHT22;7350;51.208;4.238;2022-07-11T00:09:49;18.70;99.90
14527;DHT22;7350;51.208;4.238;2022-07-11T00:12:16;18.40;99.90
14527;DHT22;7350;51.208;4.238;2022-07-11T00:14:46;18.30;99.90
14527;DHT22;7350;51.208;4.238;2022-07-11T00:17:13;18.50;99.90
14527;DHT22;7350;51.208;4.238;2022-07-11T00:19:40;18.60;99.90
14527;DHT22;7350;51.208;4.238;2022-07-11T00:22:07;18.50;99.90
14527;DHT22;7350;51.208;4.238;2022-07-11T00:24:36;18.30;99.90
14527;DHT22;7350;51.208;4.238;2022-07-11T00:27:03;18.30;99.90
14527;DHT22;7350;51.208;4.238;2022-07-11T00:29:30;18.40;99.90
14527;DHT22;7350;51.208;4.238;2022-07-11T00:31:58;18.20;99.90
14527;DHT22;7350;51.208;4.238;2022-07-11T00:34:25;18.30;99.90
14527;DHT22;7350;51.208;4.238;2022-07-11T00:36:52;18.10;99.90
14527;DHT22;7350;51.208;4.238;2022-07-11T00:39:19;18.10;99.90
14527;DHT22;7350;51.208;4.238;2022-07-11T00:41:48;18.20;99.90
14527;DHT22;7350;51.208;4.238;2022-07-11T00:44:15;18.40;99.90
14527;DHT22;7350;51.208;4.238;2022-07-11T00:46:42;18.20;99.90
14527;DHT22;7350;51.208;4.238;2022-07-11T00:49:09;18.10;99.90
14527;DHT22;7350;51.208;4.238;2022-07-11T00:51:36;18.00;99.90
14527;DHT22;7350;51.208;4.238;2022-07-11T00:54:06;18.00;99.90
14527;DHT22;7350;51.208;4.238;2022-07-11T00:56:34;18.10;99.90
14527;DHT22;7350;51.208;4.238;2022-07-11T00:59:03;18.10;99.90
14527;DHT22;7350;51.208;4.238;2022-07-11T01:01:32;18.20;99.90
14527;DHT22;7350;51.208;4.238;2022-07-11T01:04:01;18.20;99.90
14527;DHT22;7350;51.208;4.238;2022-07-11T01:06:28;18.10;99.90
14527;DHT22;7350;51.208;4.238;2022-07-11T01:08:55;18.00;99.90
14527;DHT22;7350;51.208;4.238;2022-07-11T01:11:22;18.10;99.90
14527;DHT22;7350;51.208;4.238;2022-07-11T01:13:49;17.90;99.90
14527;DHT22;7350;51.208;4.238;2022-07-11T01:16:19;17.90;99.90
14527;DHT22;7350;51.208;4.238;2022-07-11T01:18:49;17.80;99.90
14527;DHT22;7350;51.208;4.238;2022-07-11T01:21:22;17.40;99.90
14527;DHT22;7350;51.208;4.238;2022-07-11T01:23:52;17.30;99.90
14527;DHT22;7350;51.208;4.238;2022-07-11T01:26:22;17.30;99.90
14527;DHT22;7350;51.208;4.238;2022-07-11T01:28:50;17.50;99.90
14527;DHT22;7350;51.208;4.238;2022-07-11T01:31:17;17.20;99.90
14527;DHT22;7350;51.208;4.238;2022-07-11T01:33:44;17.10;99.90
14527;DHT22;7350;51.208;4.238;2022-07-11T01:36:11;17.10;99.90
14527;DHT22;7350;51.208;4.238;2022-07-11T01:38:39;17.00;99.90
14527;DHT22;7350;51.208;4.238;2022-07-11T01:41:07;17.00;99.90
14527;DHT22;7350;51.208;4.238;2022-07-11T01:43:34;17.30;99.90
14527;DHT22;7350;51.208;4.238;2022-07-11T01:46:01;17.30;99.90
14527;DHT22;7350;51.208;4.238;2022-07-11T01:48:28;17.50;99.90
14527;DHT22;7350;51.208;4.238;2022-07-11T01:50:55;17.40;99.90
14527;DHT22;7350;51.208;4.238;2022-07-11T01:53:22;17.40;99.90
14527;DHT22;7350;51.208;4.238;2022-07-11T01:55:49;17.30;99.90
14527;DHT22;7350;51.208;4.238;2022-07-11T01:58:17;17.40;99.90
14527;DHT22;7350;51.208;4.238;2022-07-11T02:00:44;17.60;99.90
14527;DHT22;7350;51.208;4.238;2022-07-11T02:03:11;17.70;99.90
14527;DHT22;7350;51.208;4.238;2022-07-11T02:05:38;17.70;99.90
14527;DHT22;7350;51.208;4.238;2022-07-11T02:08:07;17.80;99.90
14527;DHT22;7350;51.208;4.238;2022-07-11T02:10:42;17.90;99.90
14527;DHT22;7350;51.208;4.238;2022-07-11T02:13:09;17.70;99.90
14527;DHT22;7350;51.208;4.238;2022-07-11T02:15:38;17.50;99.90
14527;DHT22;7350;51.208;4.238;2022-07-11T02:18:06;17.50;99.90
14527;DHT22;7350;51.208;4.238;2022-07-11T02:20:33;17.40;99.90
14527;DHT22;7350;51.208;4.238;2022-07-11T02:23:00;17.50;99.90
14527;DHT22;7350;51.208;4.238;2022-07-11T02:25:28;17.50;99.90
14527;DHT22;7350;51.208;4.238;2022-07-11T02:27:55;17.60;99.90
14527;DHT22;7350;51.208;4.238;2022-07-11T02:30:22;17.90;99.90
14527;DHT22;7350;51.208;4.238;2022-07-11T02:32:51;17.70;99.90
14527;DHT22;7350;51.208;4.238;2022-07-11T02:35:18;17.50;99.90
14527;DHT22;7350;51.208;4.238;2022-07-11T02:37:45;17.40;99.90
14527;DHT22;7350;51.208;4.238;2022-07-11T02:40:14;17.10;99.90
14527;DHT22;7350;51.208;4.238;2022-07-11T02:42:41;17.00;99.90
14527;DHT22;7350;51.208;4.238;2022-07-11T02:45:08;17.10;99.90
14527;DHT22;7350;51.208;4.238;2022-07-11T02:47:36;17.00;99.90
14527;DHT22;7350;51.208;4.238;2022-07-11T02:50:08;17.00;99.90
14527;DHT22;7350;51.208;4.238;2022-07-11T02:52:35;16.60;99.90
14527;DHT22;7350;51.208;4.238;2022-07-11T02:55:03;16.40;99.90
14527;DHT22;7350;51.208;4.238;2022-07-11T02:57:30;16.50;99.90
14527;DHT22;7350;51.208;4.238;2022-07-11T02:59:57;16.70;99.90
14527;DHT22;7350;51.208;4.238;2022-07-11T03:02:24;16.80;99.90
14527;DHT22;7350;51.208;4.238;2022-07-11T03:04:51;16.80;99.90
14527;DHT22;7350;51.208;4.238;2022-07-11T03:07:19;17.00;99.90
14527;DHT22;7350;51.208;4.238;2022-07-11T03:09:46;17.10;99.90
14527;DHT22;7350;51.208;4.238;2022-07-11T03:12:13;17.20;99.90
14527;DHT22;7350;51.208;4.238;2022-07-11T03:14:40;17.20;99.90
14527;DHT22;7350;51.208;4.238;2022-07-11T03:17:07;17.10;99.90
14527;DHT22;7350;51.208;4.238;2022-07-11T03:19:33;17.00;99.90
14527;DHT22;7350;51.208;4.238;2022-07-11T03:22:00;16.90;99.90
14527;DHT22;7350;51.208;4.238;2022-07-11T03:24:29;17.00;99.90
14527;DHT22;7350;51.208;4.238;2022-07-11T03:26:56;16.90;99.90
14527;DHT22;7350;51.208;4.238;2022-07-11T03:29:22;16.90;99.90
14527;DHT22;7350;51.208;4.238;2022-07-11T03:31:49;16.90;99.90
14527;DHT22;7350;51.208;4.238;2022-07-11T03:34:16;17.00;99.90
14527;DHT22;7350;51.208;4.238;2022-07-11T03:36:43;16.90;99.90
14527;DHT22;7350;51.208;4.238;2022-07-11T03:39:12;17.00;99.90
14527;DHT22;7350;51.208;4.238;2022-07-11T03:41:40;17.20;99.90
14527;DHT22;7350;51.208;4.238;2022-07-11T03:44:07;17.30;99.90
14527;DHT22;7350;51.208;4.238;2022-07-11T03:46:34;17.40;99.90
14527;DHT22;7350;51.208;4.238;2022-07-11T03:49:01;17.20;99.90
14527;DHT22;7350;51.208;4.238;2022-07-11T03:51:29;17.10;99.90
14527;DHT22;7350;51.208;4.238;2022-07-11T03:53:56;17.10;99.90
14527;DHT22;7350;51.208;4.238;2022-07-11T03:56:23;17.00;99.90
14527;DHT22;7350;51.208;4.238;2022-07-11T03:58:52;17.00;99.90
14527;DHT22;7350;51.208;4.238;2022-07-11T04:01:19;16.90;99.90
14527;DHT22;7350;51.208;4.238;2022-07-11T04:03:46;16.90;99.90
14527;DHT22;7350;51.208;4.238;2022-07-11T04:06:13;16.90;99.90
14527;DHT22;7350;51.208;4.238;2022-07-11T04:08:41;16.90;99.90
14527;DHT22;7350;51.208;4.238;2022-07-11T04:11:08;16.80;99.90
14527;DHT22;7350;51.208;4.238;2022-07-11T04:13:35;17.10;99.90
14527;DHT22;7350;51.208;4.238;2022-07-11T04:16:04;17.40;99.90
14527;DHT22;7350;51.208;4.238;2022-07-11T04:18:31;17.30;99.90
14527;DHT22;7350;51.208;4.238;2022-07-11T04:20:58;17.20;99.90
14527;DHT22;7350;51.208;4.238;2022-07-11T04:23:27;16.80;99.90
14527;DHT22;7350;51.208;4.238;2022-07-11T04:25:54;16.70;99.90
14527;DHT22;7350;51.208;4.238;2022-07-11T04:28:21;17.00;99.90
14527;DHT22;7350;51.208;4.238;2022-07-11T04:30:48;17.20;99.90
14527;DHT22;7350;51.208;4.238;2022-07-11T04:33:16;17.20;99.90
14527;DHT22;7350;51.208;4.238;2022-07-11T04:35:43;17.30;99.90
14527;DHT22;7350;51.208;4.238;2022-07-11T04:38:10;17.50;99.90
14527;DHT22;7350;51.208;4.238;2022-07-11T04:40:37;17.60;99.90
14527;DHT22;7350;51.208;4.238;2022-07-11T04:43:05;17.60;99.90
14527;DHT22;7350;51.208;4.238;2022-07-11T04:45:32;17.70;99.90
14527;DHT22;7350;51.208;4.238;2022-07-11T04:47:59;17.70;99.90
14527;DHT22;7350;51.208;4.238;2022-07-11T04:50:28;17.80;99.90
14527;DHT22;7350;51.208;4.238;2022-07-11T04:52:55;17.90;99.90
14527;DHT22;7350;51.208;4.238;2022-07-11T04:55:22;18.00;99.90
14527;DHT22;7350;51.208;4.238;2022-07-11T04:57:49;18.10;99.90
14527;DHT22;7350;51.208;4.238;2022-07-11T05:00:16;18.20;99.90
14527;DHT22;7350;51.208;4.238;2022-07-11T05:02:43;18.30;99.90
14527;DHT22;7350;51.208;4.238;2022-07-11T05:05:10;17.90;99.90
14527;DHT22;7350;51.208;4.238;2022-07-11T05:07:38;18.00;99.90
14527;DHT22;7350;51.208;4.238;2022-07-11T05:10:06;18.20;99.90
14527;DHT22;7350;51.208;4.238;2022-07-11T05:12:33;18.10;99.90
14527;DHT22;7350;51.208;4.238;2022-07-11T05:15:00;18.10;99.90
14527;DHT22;7350;51.208;4.238;2022-07-11T05:17:27;18.20;99.90
14527;DHT22;7350;51.208;4.238;2022-07-11T05:19:55;18.20;99.90
14527;DHT22;7350;51.208;4.238;2022-07-11T05:22:22;18.10;99.90
14527;DHT22;7350;51.208;4.238;2022-07-11T05:24:50;18.00;99.90
14527;DHT22;7350;51.208;4.238;2022-07-11T05:27:17;17.90;99.90
14527;DHT22;7350;51.208;4.238;2022-07-11T05:29:44;18.00;99.90
14527;DHT22;7350;51.208;4.238;2022-07-11T05:32:11;17.90;99.90
14527;DHT22;7350;51.208;4.238;2022-07-11T05:34:38;18.00;99.90
14527;DHT22;7350;51.208;4.238;2022-07-11T05:37:05;18.30;99.90
14527;DHT22;7350;51.208;4.238;2022-07-11T05:39:32;18.50;99.90
14527;DHT22;7350;51.208;4.238;2022-07-11T05:42:00;18.80;99.90
14527;DHT22;7350;51.208;4.238;2022-07-11T05:44:27;18.90;99.90
14527;DHT22;7350;51.208;4.238;2022-07-11T05:46:58;19.00;99.90
14527;DHT22;7350;51.208;4.238;2022-07-11T05:49:26;19.10;99.90
14527;DHT22;7350;51.208;4.238;2022-07-11T05:51:54;19.50;99.90
14527;DHT22;7350;51.208;4.238;2022-07-11T05:54:21;20.10;99.90
14527;DHT22;7350;51.208;4.238;2022-07-11T05:56:48;20.40;99.90
14527;DHT22;7350;51.208;4.238;2022-07-11T05:59:16;20.70;99.90
14527;DHT22;7350;51.208;4.238;2022-07-11T06:01:43;20.60;99.90
14527;DHT22;7350;51.208;4.238;2022-07-11T06:04:10;20.50;99.90
14527;DHT22;7350;51.208;4.238;2022-07-11T06:06:38;20.70;99.90
14527;DHT22;7350;51.208;4.238;2022-07-11T06:09:05;21.30;99.90
14527;DHT22;7350;51.208;4.238;2022-07-11T06:11:32;21.60;99.90
14527;DHT22;7350;51.208;4.238;2022-07-11T06:13:59;21.80;99.90
14527;DHT22;7350;51.208;4.238;2022-07-11T06:16:28;22.00;99.90
14527;DHT22;7350;51.208;4.238;2022-07-11T06:18:55;21.80;99.90
14527;DHT22;7350;51.208;4.238;2022-07-11T06:21:21;21.60;99.90
14527;DHT22;7350;51.208;4.238;2022-07-11T06:23:49;21.60;99.90
14527;DHT22;7350;51.208;4.238;2022-07-11T06:26:16;21.80;99.90
14527;DHT22;7350;51.208;4.238;2022-07-11T06:28:43;21.60;99.90
14527;DHT22;7350;51.208;4.238;2022-07-11T06:31:11;20.90;99.90
14527;DHT22;7350;51.208;4.238;2022-07-11T06:33:39;20.80;99.90
14527;DHT22;7350;51.208;4.238;2022-07-11T06:36:07;20.80;99.90
14527;DHT22;7350;51.208;4.238;2022-07-11T06:38:34;20.50;99.90
14527;DHT22;7350;51.208;4.238;2022-07-11T06:41:01;20.10;99.90
14527;DHT22;7350;51.208;4.238;2022-07-11T06:43:28;20.10;99.90
14527;DHT22;7350;51.208;4.238;2022-07-11T06:45:55;20.40;99.90
14527;DHT22;7350;51.208;4.238;2022-07-11T06:48:23;20.40;99.90
14527;DHT22;7350;51.208;4.238;2022-07-11T06:50:52;20.80;99.90
14527;DHT22;7350;51.208;4.238;2022-07-11T06:53:19;21.10;99.90
14527;DHT22;7350;51.208;4.238;2022-07-11T06:55:46;21.40;99.90
14527;DHT22;7350;51.208;4.238;2022-07-11T06:58:13;21.80;99.90
14527;DHT22;7350;51.208;4.238;2022-07-11T07:00:57;21.60;99.90
14527;DHT22;7350;51.208;4.238;2022-07-11T07:03:26;21.30;99.90
14527;DHT22;7350;51.208;4.238;2022-07-11T07:05:55;21.30;99.90
14527;DHT22;7350;51.208;4.238;2022-07-11T07:08:26;21.10;99.90
14527;DHT22;7350;51.208;4.238;2022-07-11T07:10:53;20.90;99.90
14527;DHT22;7350;51.208;4.238;2022-07-11T07:13:21;21.20;99.90
14527;DHT22;7350;51.208;4.238;2022-07-11T07:15:51;21.30;99.90
14527;DHT22;7350;51.208;4.238;2022-07-11T07:18:18;21.40;99.90
14527;DHT22;7350;51.208;4.238;2022-07-11T07:20:45;21.30;99.90
14527;DHT22;7350;51.208;4.238;2022-07-11T07:23:14;21.30;99.90
14527;DHT22;7350;51.208;4.238;2022-07-11T07:25:42;21.60;99.90
14527;DHT22;7350;51.208;4.238;2022-07-11T07:28:09;21.40;99.90
14527;DHT22;7350;51.208;4.238;2022-07-11T07:30:36;21.50;99.90
14527;DHT22;7350;51.208;4.238;2022-07-11T07:33:03;21.90;99.90
14527;DHT22;7350;51.208;4.238;2022-07-11T07:35:30;22.20;99.90
14527;DHT22;7350;51.208;4.238;2022-07-11T07:37:57;22.10;99.90
14527;DHT22;7350;51.208;4.238;2022-07-11T07:40:27;22.10;99.90
14527;DHT22;7350;51.208;4.238;2022-07-11T07:42:54;22.10;99.90
14527;DHT22;7350;51.208;4.238;2022-07-11T07:45:22;22.40;99.90
14527;DHT22;7350;51.208;4.238;2022-07-11T07:47:49;22.40;99.90
14527;DHT22;7350;51.208;4.238;2022-07-11T07:50:16;22.20;99.90
14527;DHT22;7350;51.208;4.238;2022-07-11T07:52:43;22.20;99.90
14527;DHT22;7350;51.208;4.238;2022-07-11T07:55:10;21.90;99.90
14527;DHT22;7350;51.208;4.238;2022-07-11T07:57:38;21.60;99.90
14527;DHT22;7350;51.208;4.238;2022-07-11T08:00:06;21.70;99.90
14527;DHT22;7350;51.208;4.238;2022-07-11T08:02:51;22.10;99.90
14527;DHT22;7350;51.208;4.238;2022-07-11T08:05:18;22.50;99.90
14527;DHT22;7350;51.208;4.238;2022-07-11T08:07:45;22.60;99.90
14527;DHT22;7350;51.208;4.238;2022-07-11T08:10:12;23.00;99.90
14527;DHT22;7350;51.208;4.238;2022-07-11T08:12:41;23.40;99.90
14527;DHT22;7350;51.208;4.238;2022-07-11T08:15:09;23.50;99.90
14527;DHT22;7350;51.208;4.238;2022-07-11T08:17:36;23.50;99.90
14527;DHT22;7350;51.208;4.238;2022-07-11T08:20:04;23.60;99.90
14527;DHT22;7350;51.208;4.238;2022-07-11T08:22:31;23.50;99.90
14527;DHT22;7350;51.208;4.238;2022-07-11T08:24:58;23.70;99.90
14527;DHT22;7350;51.208;4.238;2022-07-11T08:27:25;23.70;99.90
14527;DHT22;7350;51.208;4.238;2022-07-11T08:29:54;23.70;99.90
14527;DHT22;7350;51.208;4.238;2022-07-11T08:32:21;23.50;99.90
14527;DHT22;7350;51.208;4.238;2022-07-11T08:34:47;23.50;99.90
14527;DHT22;7350;51.208;4.238;2022-07-11T08:37:14;23.40;99.90
14527;DHT22;7350;51.208;4.238;2022-07-11T08:39:41;23.40;99.90
14527;DHT22;7350;51.208;4.238;2022-07-11T08:42:09;23.20;99.90
14527;DHT22;7350;51.208;4.238;2022-07-11T08:44:36;23.20;99.90
14527;DHT22;7350;51.208;4.238;2022-07-11T08:47:05;23.30;99.90
14527;DHT22;7350;51.208;4.238;2022-07-11T08:49:32;23.20;99.90
14527;DHT22;7350;51.208;4.238;2022-07-11T08:51:59;23.00;99.90
14527;DHT22;7350;51.208;4.238;2022-07-11T08:54:27;22.40;99.90
14527;DHT22;7350;51.208;4.238;2022-07-11T08:56:54;22.80;99.90
14527;DHT22;7350;51.208;4.238;2022-07-11T08:59:23;23.20;99.90
14527;DHT22;7350;51.208;4.238;2022-07-11T09:01:51;23.20;99.90
14527;DHT22;7350;51.208;4.238;2022-07-11T09:04:24;23.30;99.90
14527;DHT22;7350;51.208;4.238;2022-07-11T09:06:51;23.70;99.90
14527;DHT22;7350;51.208;4.238;2022-07-11T09:09:18;23.50;99.90
14527;DHT22;7350;51.208;4.238;2022-07-11T09:11:49;23.50;99.90
14527;DHT22;7350;51.208;4.238;2022-07-11T09:14:28;23.60;99.90
14527;DHT22;7350;51.208;4.238;2022-07-11T09:16:56;23.30;99.90
14527;DHT22;7350;51.208;4.238;2022-07-11T09:19:27;23.20;99.90
14527;DHT22;7350;51.208;4.238;2022-07-11T09:21:59;23.30;99.90
14527;DHT22;7350;51.208;4.238;2022-07-11T09:24:53;23.50;99.90
14527;DHT22;7350;51.208;4.238;2022-07-11T09:27:42;23.50;99.90
14527;DHT22;7350;51.208;4.238;2022-07-11T09:30:20;23.50;99.90
14527;DHT22;7350;51.208;4.238;2022-07-11T09:32:58;23.70;99.90
14527;DHT22;7350;51.208;4.238;2022-07-11T09:35:28;23.80;99.90
14527;DHT22;7350;51.208;4.238;2022-07-11T09:37:56;24.00;99.90
14527;DHT22;7350;51.208;4.238;2022-07-11T09:40:23;23.80;99.90
14527;DHT22;7350;51.208;4.238;2022-07-11T09:42:52;23.80;99.90
14527;DHT22;7350;51.208;4.238;2022-07-11T09:45:21;24.10;99.90
14527;DHT22;7350;51.208;4.238;2022-07-11T09:47:49;24.00;99.90
14527;DHT22;7350;51.208;4.238;2022-07-11T09:50:19;24.00;99.90
14527;DHT22;7350;51.208;4.238;2022-07-11T09:53:02;23.90;99.90
14527;DHT22;7350;51.208;4.238;2022-07-11T09:55:29;23.90;99.90
14527;DHT22;7350;51.208;4.238;2022-07-11T09:57:56;24.00;99.90
14527;DHT22;7350;51.208;4.238;2022-07-11T10:00:24;24.20;99.90
14527;DHT22;7350;51.208;4.238;2022-07-11T10:02:52;24.20;99.90
14527;DHT22;7350;51.208;4.238;2022-07-11T10:05:21;24.20;99.90
14527;DHT22;7350;51.208;4.238;2022-07-11T10:07:48;24.30;99.90
14527;DHT22;7350;51.208;4.238;2022-07-11T10:10:16;24.50;99.90
14527;DHT22;7350;51.208;4.238;2022-07-11T10:12:44;24.90;99.90
14527;DHT22;7350;51.208;4.238;2022-07-11T10:15:14;25.10;99.90
14527;DHT22;7350;51.208;4.238;2022-07-11T10:17:47;24.60;99.90
14527;DHT22;7350;51.208;4.238;2022-07-11T10:20:21;24.60;99.90
14527;DHT22;7350;51.208;4.238;2022-07-11T10:22:55;24.60;99.90
14527;DHT22;7350;51.208;4.238;2022-07-11T10:25:31;24.50;99.90
14527;DHT22;7350;51.208;4.238;2022-07-11T10:28:08;24.50;99.90
14527;DHT22;7350;51.208;4.238;2022-07-11T10:30:44;24.30;99.90
14527;DHT22;7350;51.208;4.238;2022-07-11T10:33:12;24.10;99.90
14527;DHT22;7350;51.208;4.238;2022-07-11T10:35:43;24.10;99.90
14527;DHT22;7350;51.208;4.238;2022-07-11T10:38:11;24.50;99.90
14527;DHT22;7350;51.208;4.238;2022-07-11T10:40:48;24.00;99.90
14527;DHT22;7350;51.208;4.238;2022-07-11T10:43:31;24.30;99.90
14527;DHT22;7350;51.208;4.238;2022-07-11T10:46:01;24.70;99.90
14527;DHT22;7350;51.208;4.238;2022-07-11T10:48:30;25.00;99.90
14527;DHT22;7350;51.208;4.238;2022-07-11T10:51:08;25.10;99.90
14527;DHT22;7350;51.208;4.238;2022-07-11T10:53:43;24.90;99.90
14527;DHT22;7350;51.208;4.238;2022-07-11T10:56:33;25.10;99.90
14527;DHT22;7350;51.208;4.238;2022-07-11T10:59:12;25.20;99.90
14527;DHT22;7350;51.208;4.238;2022-07-11T11:02:00;25.40;99.90
14527;DHT22;7350;51.208;4.238;2022-07-11T11:04:47;25.30;99.90
14527;DHT22;7350;51.208;4.238;2022-07-11T11:07:35;25.40;99.90
14527;DHT22;7350;51.208;4.238;2022-07-11T11:13:13;25.60;99.90
14527;DHT22;7350;51.208;4.238;2022-07-11T11:15:42;25.60;99.90
14527;DHT22;7350;51.208;4.238;2022-07-11T11:18:41;25.60;99.90
14527;DHT22;7350;51.208;4.238;2022-07-11T11:21:22;25.60;99.90
14527;DHT22;7350;51.208;4.238;2022-07-11T11:24:06;25.90;99.90
14527;DHT22;7350;51.208;4.238;2022-07-11T11:26:46;25.70;99.90
14527;DHT22;7350;51.208;4.238;2022-07-11T11:29:20;25.70;99.90
14527;DHT22;7350;51.208;4.238;2022-07-11T11:31:52;25.70;99.90
14527;DHT22;7350;51.208;4.238;2022-07-11T11:34:19;25.50;99.90
14527;DHT22;7350;51.208;4.238;2022-07-11T11:36:55;25.50;99.90
14527;DHT22;7350;51.208;4.238;2022-07-11T11:39:28;25.50;99.90
14527;DHT22;7350;51.208;4.238;2022-07-11T11:42:07;25.50;99.90
14527;DHT22;7350;51.208;4.238;2022-07-11T11:44:50;25.50;99.90
14527;DHT22;7350;51.208;4.238;2022-07-11T11:47:17;25.80;99.90
14527;DHT22;7350;51.208;4.238;2022-07-11T11:49:45;25.90;99.90
14527;DHT22;7350;51.208;4.238;2022-07-11T11:52:13;26.00;99.90
14527;DHT22;7350;51.208;4.238;2022-07-11T11:54:40;25.80;99.90
14527;DHT22;7350;51.208;4.238;2022-07-11T11:57:08;25.70;99.90
14527;DHT22;7350;51.208;4.238;2022-07-11T11:59:38;25.40;99.90
14527;DHT22;7350;51.208;4.238;2022-07-11T12:02:07;25.60;99.90
14527;DHT22;7350;51.208;4.238;2022-07-11T12:04:35;25.80;99.90
14527;DHT22;7350;51.208;4.238;2022-07-11T12:07:04;26.10;99.90
14527;DHT22;7350;51.208;4.238;2022-07-11T12:09:31;26.20;99.90
14527;DHT22;7350;51.208;4.238;2022-07-11T12:12:17;26.30;99.90
14527;DHT22;7350;51.208;4.238;2022-07-11T12:15:04;26.50;99.90
14527;DHT22;7350;51.208;4.238;2022-07-11T12:17:32;26.20;99.90
14527;DHT22;7350;51.208;4.238;2022-07-11T12:19:59;26.10;99.90
14527;DHT22;7350;51.208;4.238;2022-07-11T12:22:27;26.00;99.90
14527;DHT22;7350;51.208;4.238;2022-07-11T12:24:54;25.80;99.90
14527;DHT22;7350;51.208;4.238;2022-07-11T12:27:23;25.50;99.90
14527;DHT22;7350;51.208;4.238;2022-07-11T12:29:51;25.50;99.90
14527;DHT22;7350;51.208;4.238;2022-07-11T12:32:20;25.60;99.90
14527;DHT22;7350;51.208;4.238;2022-07-11T12:34:48;26.00;99.90
14527;DHT22;7350;51.208;4.238;2022-07-11T12:37:17;26.40;99.90
14527;DHT22;7350;51.208;4.238;2022-07-11T12:39:49;26.30;99.90
14527;DHT22;7350;51.208;4.238;2022-07-11T12:42:23;26.60;99.90
14527;DHT22;7350;51.208;4.238;2022-07-11T12:44:58;26.60;99.90
14527;DHT22;7350;51.208;4.238;2022-07-11T12:47:27;26.80;99.90
14527;DHT22;7350;51.208;4.238;2022-07-11T12:49:55;27.20;99.90
14527;DHT22;7350;51.208;4.238;2022-07-11T12:52:22;26.90;99.90
14527;DHT22;7350;51.208;4.238;2022-07-11T12:54:50;26.60;99.90
14527;DHT22;7350;51.208;4.238;2022-07-11T12:57:26;26.30;99.90
14527;DHT22;7350;51.208;4.238;2022-07-11T12:59:53;26.00;99.90
14527;DHT22;7350;51.208;4.238;2022-07-11T13:02:21;26.20;99.90
14527;DHT22;7350;51.208;4.238;2022-07-11T13:04:53;26.20;99.90
14527;DHT22;7350;51.208;4.238;2022-07-11T13:07:28;25.80;99.90
14527;DHT22;7350;51.208;4.238;2022-07-11T13:10:14;25.80;99.90
14527;DHT22;7350;51.208;4.238;2022-07-11T13:12:42;25.90;99.90
14527;DHT22;7350;51.208;4.238;2022-07-11T13:15:11;26.30;99.90
14527;DHT22;7350;51.208;4.238;2022-07-11T13:17:39;26.60;99.90
14527;DHT22;7350;51.208;4.238;2022-07-11T13:20:10;26.80;99.90
14527;DHT22;7350;51.208;4.238;2022-07-11T13:22:39;27.20;99.90
14527;DHT22;7350;51.208;4.238;2022-07-11T13:25:07;26.90;99.90
14527;DHT22;7350;51.208;4.238;2022-07-11T13:27:36;26.30;99.90
14527;DHT22;7350;51.208;4.238;2022-07-11T13:30:04;26.60;99.90
14527;DHT22;7350;51.208;4.238;2022-07-11T13:32:36;26.50;99.90
14527;DHT22;7350;51.208;4.238;2022-07-11T13:35:04;26.60;99.90
14527;DHT22;7350;51.208;4.238;2022-07-11T13:37:33;26.90;99.90
14527;DHT22;7350;51.208;4.238;2022-07-11T13:40:01;26.90;99.90
14527;DHT22;7350;51.208;4.238;2022-07-11T13:42:29;26.90;99.90
14527;DHT22;7350;51.208;4.238;2022-07-11T13:44:57;26.40;99.90
14527;DHT22;7350;51.208;4.238;2022-07-11T13:47:24;26.20;99.90
14527;DHT22;7350;51.208;4.238;2022-07-11T13:49:51;26.20;99.90
14527;DHT22;7350;51.208;4.238;2022-07-11T13:52:18;26.40;99.90
14527;DHT22;7350;51.208;4.238;2022-07-11T13:54:46;26.20;99.90
14527;DHT22;7350;51.208;4.238;2022-07-11T13:57:13;26.50;99.90
14527;DHT22;7350;51.208;4.238;2022-07-11T13:59:40;26.60;99.90
14527;DHT22;7350;51.208;4.238;2022-07-11T14:02:07;26.80;99.90
14527;DHT22;7350;51.208;4.238;2022-07-11T14:04:35;27.00;99.90
14527;DHT22;7350;51.208;4.238;2022-07-11T14:07:02;26.90;99.90
14527;DHT22;7350;51.208;4.238;2022-07-11T14:09:29;26.60;99.90
14527;DHT22;7350;51.208;4.238;2022-07-11T14:11:59;26.50;99.90
14527;DHT22;7350;51.208;4.238;2022-07-11T14:14:27;26.20;99.90
14527;DHT22;7350;51.208;4.238;2022-07-11T14:16:54;26.50;99.90
14527;DHT22;7350;51.208;4.238;2022-07-11T14:19:21;26.80;99.90
14527;DHT22;7350;51.208;4.238;2022-07-11T14:21:48;26.60;99.90
14527;DHT22;7350;51.208;4.238;2022-07-11T14:24:15;26.40;99.90
14527;DHT22;7350;51.208;4.238;2022-07-11T14:26:42;26.50;99.90
14527;DHT22;7350;51.208;4.238;2022-07-11T14:29:11;26.30;99.90
14527;DHT22;7350;51.208;4.238;2022-07-11T14:31:38;26.30;99.90
14527;DHT22;7350;51.208;4.238;2022-07-11T14:34:05;26.30;99.90
14527;DHT22;7350;51.208;4.238;2022-07-11T14:36:32;26.50;99.90
14527;DHT22;7350;51.208;4.238;2022-07-11T14:38:59;26.30;99.90
14527;DHT22;7350;51.208;4.238;2022-07-11T14:41:27;26.30;99.90
14527;DHT22;7350;51.208;4.238;2022-07-11T14:43:54;26.10;99.90
14527;DHT22;7350;51.208;4.238;2022-07-11T14:46:23;26.20;99.90
14527;DHT22;7350;51.208;4.238;2022-07-11T14:48:50;26.10;99.90
14527;DHT22;7350;51.208;4.238;2022-07-11T14:51:18;26.30;99.90
14527;DHT22;7350;51.208;4.238;2022-07-11T14:53:45;26.40;99.90
14527;DHT22;7350;51.208;4.238;2022-07-11T14:56:12;26.50;99.90
14527;DHT22;7350;51.208;4.238;2022-07-11T14:58:39;26.80;99.90
14527;DHT22;7350;51.208;4.238;2022-07-11T15:01:06;26.90;99.90
14527;DHT22;7350;51.208;4.238;2022-07-11T15:03:35;27.20;99.90
14527;DHT22;7350;51.208;4.238;2022-07-11T15:06:05;27.10;99.90
14527;DHT22;7350;51.208;4.238;2022-07-11T15:08:33;27.10;99.90
14527;DHT22;7350;51.208;4.238;2022-07-11T15:11:17;26.80;99.90
14527;DHT22;7350;51.208;4.238;2022-07-11T15:14:02;26.90;99.90
14527;DHT22;7350;51.208;4.238;2022-07-11T15:16:29;26.90;99.90
14527;DHT22;7350;51.208;4.238;2022-07-11T15:18:57;26.70;99.90
14527;DHT22;7350;51.208;4.238;2022-07-11T15:21:24;26.60;99.90
14527;DHT22;7350;51.208;4.238;2022-07-11T15:23:52;26.60;99.90
14527;DHT22;7350;51.208;4.238;2022-07-11T15:26:19;26.70;99.90
14527;DHT22;7350;51.208;4.238;2022-07-11T15:28:46;26.80;99.90
14527;DHT22;7350;51.208;4.238;2022-07-11T15:31:13;26.80;99.90
14527;DHT22;7350;51.208;4.238;2022-07-11T15:33:41;26.60;99.90
14527;DHT22;7350;51.208;4.238;2022-07-11T15:36:11;26.60;99.90
14527;DHT22;7350;51.208;4.238;2022-07-11T15:38:38;26.50;99.90
14527;DHT22;7350;51.208;4.238;2022-07-11T15:41:05;26.70;99.90
14527;DHT22;7350;51.208;4.238;2022-07-11T15:43:33;26.90;99.90
14527;DHT22;7350;51.208;4.238;2022-07-11T15:46:00;27.20;99.90
14527;DHT22;7350;51.208;4.238;2022-07-11T15:48:28;27.30;99.90
14527;DHT22;7350;51.208;4.238;2022-07-11T15:50:56;27.00;99.90
14527;DHT22;7350;51.208;4.238;2022-07-11T15:53:24;26.70;99.90
14527;DHT22;7350;51.208;4.238;2022-07-11T15:55:51;26.80;99.90
14527;DHT22;7350;51.208;4.238;2022-07-11T15:58:18;26.70;99.90